Wetterdaten: Woche 23.07.18 - 29.07.18 (KW30)
Datum Zeit Temp. Auen Feucht Auen Luftdruck Regen Richtung Windben
23.07.2018 00:00 15,2 C 94 % 1015,5 hPa 0,0 mm W 4,9 km/h (1 Bft)
23.07.2018 01:00 15,2 C 94 % 1015,4 hPa 0,0 mm W 4,0 km/h (1 Bft)
23.07.2018 02:00 15,1 C 94 % 1015,2 hPa 0,0 mm W 4,5 km/h (1 Bft)
23.07.2018 03:00 15,1 C 94 % 1014,8 hPa 0,0 mm W 6,0 km/h (2 Bft)
23.07.2018 04:00 15,2 C 94 % 1014,9 hPa 0,0 mm W 2,9 km/h (1 Bft)
23.07.2018 05:00 15,3 C 94 % 1015,1 hPa 0,0 mm W 3,7 km/h (1 Bft)
23.07.2018 06:00 15,5 C 94 % 1015,5 hPa 0,0 mm W 3,3 km/h (1 Bft)
23.07.2018 07:00 15,9 C 94 % 1015,8 hPa 0,0 mm W 2,9 km/h (1 Bft)
23.07.2018 08:00 17,5 C 92 % 1016,1 hPa 0,0 mm W 9,8 km/h (2 Bft)
23.07.2018 09:00 19,3 C 86 % 1016,4 hPa 0,0 mm W 13,8 km/h (3 Bft)
23.07.2018 10:00 19,5 C 84 % 1016,8 hPa 0,0 mm W 12,1 km/h (2 Bft)
23.07.2018 11:00 21,0 C 81 % 1016,9 hPa 0,0 mm W 13,0 km/h (3 Bft)
23.07.2018 12:00 21,7 C 77 % 1016,8 hPa 0,0 mm W 14,6 km/h (3 Bft)
23.07.2018 13:00 22,9 C 72 % 1016,4 hPa 0,0 mm W 15,0 km/h (3 Bft)
23.07.2018 14:00 23,8 C 67 % 1016,1 hPa 0,0 mm W 13,2 km/h (3 Bft)
23.07.2018 15:00 24,0 C 63 % 1015,9 hPa 0,0 mm W 14,0 km/h (3 Bft)
23.07.2018 16:00 22,5 C 70 % 1015,7 hPa 0,0 mm W 9,5 km/h (2 Bft)
23.07.2018 17:00 23,9 C 66 % 1015,6 hPa 0,0 mm W 9,4 km/h (2 Bft)
23.07.2018 18:00 23,4 C 64 % 1015,6 hPa 0,0 mm W 12,2 km/h (2 Bft)
23.07.2018 19:00 20,9 C 76 % 1016,1 hPa 0,0 mm W-SW 5,6 km/h (1 Bft)
23.07.2018 20:00 19,4 C 83 % 1016,6 hPa 0,0 mm W 5,7 km/h (1 Bft)
23.07.2018 21:00 17,4 C 88 % 1017,2 hPa 0,0 mm W 4,7 km/h (1 Bft)
23.07.2018 22:00 17,1 C 89 % 1017,3 hPa 0,0 mm W 4,8 km/h (1 Bft)
23.07.2018 23:00 16,6 C 90 % 1017,2 hPa 0,0 mm W 3,1 km/h (1 Bft)
24.07.2018 00:00 16,0 C 92 % 1017,1 hPa 0,0 mm W 0,8 km/h (0 Bft)
24.07.2018 01:00 15,8 C 92 % 1016,9 hPa 0,0 mm W 1,5 km/h (1 Bft)
24.07.2018 02:00 15,1 C 92 % 1016,8 hPa 0,0 mm W 0,3 km/h (0 Bft)
24.07.2018 03:00 13,9 C 93 % 1016,5 hPa 0,0 mm W 0,5 km/h (0 Bft)
24.07.2018 04:00 13,4 C 93 % 1016,4 hPa 0,0 mm W 0,0 km/h (0 Bft)
24.07.2018 05:00 13,1 C 93 % 1016,2 hPa 0,0 mm W 2,1 km/h (1 Bft)
24.07.2018 06:00 13,1 C 94 % 1016,3 hPa 0,0 mm W 0,1 km/h (0 Bft)
24.07.2018 07:00 15,6 C 92 % 1016,2 hPa 0,0 mm W 0,4 km/h (0 Bft)
24.07.2018 08:00 17,9 C 87 % 1016,1 hPa 0,0 mm SO 2,0 km/h (1 Bft)
24.07.2018 09:00 20,5 C 79 % 1015,7 hPa 0,0 mm SO 2,8 km/h (1 Bft)
24.07.2018 10:00 22,8 C 68 % 1015,4 hPa 0,0 mm O-SO 4,9 km/h (1 Bft)
24.07.2018 11:00 24,5 C 63 % 1015,0 hPa 0,0 mm O 8,5 km/h (2 Bft)
24.07.2018 12:00 25,2 C 60 % 1014,7 hPa 0,0 mm O 9,0 km/h (2 Bft)
24.07.2018 13:00 25,1 C 57 % 1014,3 hPa 0,0 mm NO 7,0 km/h (2 Bft)
24.07.2018 14:00 26,3 C 53 % 1013,8 hPa 0,0 mm S-SO 10,7 km/h (2 Bft)
24.07.2018 15:00 26,8 C 49 % 1013,4 hPa 0,0 mm O-NO 8,3 km/h (2 Bft)
24.07.2018 16:00 26,1 C 49 % 1013,1 hPa 0,0 mm NO 6,9 km/h (2 Bft)
24.07.2018 17:00 26,4 C 48 % 1012,7 hPa 0,0 mm O-NO 7,4 km/h (2 Bft)
24.07.2018 18:00 26,0 C 49 % 1012,4 hPa 0,0 mm NO 7,1 km/h (2 Bft)
24.07.2018 19:00 24,9 C 55 % 1012,3 hPa 0,0 mm N 4,9 km/h (1 Bft)
24.07.2018 20:00 21,3 C 73 % 1012,6 hPa 0,0 mm N 0,5 km/h (0 Bft)
24.07.2018 21:00 18,9 C 81 % 1013,1 hPa 0,0 mm N 2,0 km/h (1 Bft)
24.07.2018 22:00 17,7 C 84 % 1013,4 hPa 0,0 mm NW 3,7 km/h (1 Bft)
24.07.2018 23:00 16,7 C 86 % 1013,5 hPa 0,0 mm W 3,5 km/h (1 Bft)
25.07.2018 00:00 15,9 C 88 % 1013,6 hPa 0,0 mm W 3,3 km/h (1 Bft)
25.07.2018 01:00 15,3 C 89 % 1013,4 hPa 0,0 mm W 3,6 km/h (1 Bft)
25.07.2018 02:00 14,7 C 90 % 1013,3 hPa 0,0 mm W 2,0 km/h (1 Bft)
25.07.2018 03:00 14,1 C 91 % 1013,3 hPa 0,0 mm W 1,1 km/h (0 Bft)
25.07.2018 04:00 13,8 C 91 % 1013,5 hPa 0,0 mm W 1,3 km/h (1 Bft)
25.07.2018 05:00 13,7 C 92 % 1013,8 hPa 0,0 mm W 1,7 km/h (1 Bft)
25.07.2018 06:00 14,6 C 90 % 1014,0 hPa 0,0 mm W 4,4 km/h (1 Bft)
25.07.2018 07:00 17,4 C 86 % 1014,2 hPa 0,0 mm W 2,9 km/h (1 Bft)
25.07.2018 08:00 20,1 C 80 % 1014,2 hPa 0,0 mm W 2,0 km/h (1 Bft)
25.07.2018 09:00 22,6 C 73 % 1014,3 hPa 0,0 mm W-NW 3,2 km/h (1 Bft)
25.07.2018 10:00 24,4 C 64 % 1014,4 hPa 0,0 mm W-NW 5,1 km/h (1 Bft)
25.07.2018 11:00 25,5 C 55 % 1014,5 hPa 0,0 mm W 10,1 km/h (2 Bft)
25.07.2018 12:00 27,4 C 52 % 1014,2 hPa 0,0 mm W 11,6 km/h (2 Bft)
25.07.2018 13:00 28,0 C 52 % 1013,9 hPa 0,0 mm W 10,9 km/h (2 Bft)
25.07.2018 14:00 28,8 C 51 % 1013,3 hPa 0,0 mm W 11,1 km/h (2 Bft)
25.07.2018 15:00 28,8 C 49 % 1012,8 hPa 0,0 mm W 12,2 km/h (2 Bft)
25.07.2018 16:00 23,3 C 73 % 1012,9 hPa 0,4 mm O 14,2 km/h (3 Bft)
25.07.2018 17:00 21,4 C 77 % 1013,5 hPa 0,0 mm W 8,2 km/h (2 Bft)
25.07.2018 18:00 23,0 C 68 % 1013,1 hPa 0,0 mm W 8,8 km/h (2 Bft)
25.07.2018 19:00 22,6 C 68 % 1013,1 hPa 0,0 mm W 4,7 km/h (1 Bft)
25.07.2018 20:00 20,8 C 76 % 1013,4 hPa 0,0 mm W 5,0 km/h (1 Bft)
25.07.2018 21:00 19,3 C 79 % 1013,6 hPa 0,0 mm W-SW 3,6 km/h (1 Bft)
25.07.2018 22:00 17,6 C 86 % 1014,0 hPa 0,0 mm W-SW 1,9 km/h (1 Bft)
25.07.2018 23:00 17,1 C 88 % 1014,4 hPa 0,2 mm W-SW 5,5 km/h (1 Bft)
26.07.2018 00:00 16,9 C 91 % 1015,1 hPa 0,0 mm O 7,6 km/h (2 Bft)
26.07.2018 01:00 16,8 C 92 % 1014,8 hPa 1,2 mm W 3,5 km/h (1 Bft)
26.07.2018 02:00 16,9 C 92 % 1014,4 hPa 0,0 mm W-SW 7,1 km/h (2 Bft)
26.07.2018 03:00 15,7 C 93 % 1014,3 hPa 0,0 mm W 2,7 km/h (1 Bft)
26.07.2018 04:00 14,6 C 93 % 1014,1 hPa 0,0 mm W 1,3 km/h (1 Bft)
26.07.2018 05:00 13,9 C 93 % 1014,3 hPa 0,0 mm W 0,0 km/h (0 Bft)
26.07.2018 06:00 14,2 C 93 % 1014,4 hPa 0,0 mm W 2,4 km/h (1 Bft)
26.07.2018 07:00 15,6 C 93 % 1014,8 hPa 0,0 mm W 0,9 km/h (0 Bft)
26.07.2018 08:00 18,5 C 89 % 1015,0 hPa 0,2 mm W 3,1 km/h (1 Bft)
26.07.2018 09:00 21,8 C 78 % 1015,0 hPa 0,0 mm W 3,2 km/h (1 Bft)
26.07.2018 10:00 22,3 C 74 % 1015,0 hPa 0,0 mm O 4,9 km/h (1 Bft)
26.07.2018 11:00 24,4 C 66 % 1014,8 hPa 0,0 mm W 6,3 km/h (2 Bft)
26.07.2018 12:00 24,5 C 65 % 1014,6 hPa 0,0 mm O 9,0 km/h (2 Bft)
26.07.2018 13:00 25,4 C 59 % 1014,3 hPa 0,0 mm O 12,6 km/h (3 Bft)
26.07.2018 14:00 25,9 C 51 % 1013,8 hPa 0,0 mm SO 10,5 km/h (2 Bft)
26.07.2018 15:00 25,9 C 51 % 1013,3 hPa 0,0 mm S-SO 8,3 km/h (2 Bft)
26.07.2018 16:00 26,4 C 47 % 1013,3 hPa 0,0 mm NO 9,4 km/h (2 Bft)
26.07.2018 17:00 25,5 C 52 % 1013,5 hPa 0,0 mm O 12,2 km/h (2 Bft)
26.07.2018 18:00 24,0 C 60 % 1013,4 hPa 0,0 mm O 8,4 km/h (2 Bft)
26.07.2018 19:00 23,1 C 67 % 1013,6 hPa 0,0 mm O-SO 3,2 km/h (1 Bft)
26.07.2018 20:00 21,0 C 75 % 1013,9 hPa 0,0 mm O-SO 0,7 km/h (0 Bft)
26.07.2018 21:00 19,5 C 80 % 1014,5 hPa 0,0 mm O-SO 1,5 km/h (1 Bft)
26.07.2018 22:00 17,9 C 86 % 1014,8 hPa 0,0 mm O-SO 0,9 km/h (0 Bft)
26.07.2018 23:00 16,8 C 89 % 1015,0 hPa 0,0 mm O-SO 0,5 km/h (0 Bft)
27.07.2018 00:00 16,8 C 89 % 1014,6 hPa 0,0 mm O-SO 1,5 km/h (1 Bft)
27.07.2018 01:00 16,7 C 89 % 1014,2 hPa 0,0 mm O-SO 1,1 km/h (0 Bft)
27.07.2018 02:00 16,3 C 90 % 1014,0 hPa 0,0 mm O-SO 1,1 km/h (0 Bft)
27.07.2018 03:00 15,5 C 91 % 1013,9 hPa 0,0 mm O-SO 0,7 km/h (0 Bft)
27.07.2018 04:00 15,0 C 92 % 1013,6 hPa 0,0 mm O-SO 1,7 km/h (1 Bft)
27.07.2018 05:00 14,3 C 92 % 1013,6 hPa 0,0 mm S-SW 0,7 km/h (0 Bft)
27.07.2018 06:00 14,8 C 92 % 1013,8 hPa 0,0 mm S-SW 1,2 km/h (1 Bft)
27.07.2018 07:00 17,4 C 88 % 1013,6 hPa 0,0 mm S-SW 1,6 km/h (1 Bft)
27.07.2018 08:00 19,4 C 84 % 1013,5 hPa 0,0 mm O-SO 5,6 km/h (1 Bft)
27.07.2018 09:00 21,5 C 77 % 1013,2 hPa 0,0 mm O-SO 7,8 km/h (2 Bft)
27.07.2018 10:00 23,7 C 69 % 1013,0 hPa 0,0 mm O 11,2 km/h (2 Bft)
27.07.2018 11:00 25,1 C 63 % 1012,7 hPa 0,0 mm O-SO 12,4 km/h (3 Bft)
27.07.2018 12:00 26,1 C 61 % 1012,3 hPa 0,0 mm O 12,9 km/h (3 Bft)
27.07.2018 13:00 26,9 C 58 % 1011,8 hPa 0,0 mm O-SO 13,6 km/h (3 Bft)
27.07.2018 14:00 27,2 C 57 % 1011,3 hPa 0,0 mm O-SO 15,0 km/h (3 Bft)
27.07.2018 15:00 27,3 C 55 % 1010,7 hPa 0,0 mm O-SO 12,5 km/h (3 Bft)
27.07.2018 16:00 27,5 C 54 % 1010,3 hPa 0,0 mm O 13,8 km/h (3 Bft)
27.07.2018 17:00 27,1 C 53 % 1010,1 hPa 0,0 mm O 10,3 km/h (2 Bft)
27.07.2018 18:00 26,7 C 54 % 1009,9 hPa 0,0 mm O 10,5 km/h (2 Bft)
27.07.2018 19:00 25,8 C 55 % 1010,0 hPa 0,0 mm NO 6,9 km/h (2 Bft)
27.07.2018 20:00 23,3 C 68 % 1010,3 hPa 0,0 mm O-SO 0,8 km/h (0 Bft)
27.07.2018 21:00 20,5 C 77 % 1010,6 hPa 0,0 mm W-SW 2,7 km/h (1 Bft)
27.07.2018 22:00 18,7 C 83 % 1010,3 hPa 0,0 mm W-SW 1,2 km/h (1 Bft)
27.07.2018 23:00 17,5 C 86 % 1010,4 hPa 0,0 mm W-SW 0,0 km/h (0 Bft)
28.07.2018 00:00 16,7 C 88 % 1010,5 hPa 0,0 mm W-SW 1,7 km/h (1 Bft)
28.07.2018 01:00 16,2 C 89 % 1010,1 hPa 0,0 mm W 2,4 km/h (1 Bft)
28.07.2018 02:00 15,9 C 90 % 1009,6 hPa 0,0 mm W 1,6 km/h (1 Bft)
28.07.2018 03:00 15,2 C 91 % 1009,3 hPa 0,0 mm W 2,4 km/h (1 Bft)
28.07.2018 04:00 15,0 C 91 % 1008,8 hPa 0,0 mm W 1,7 km/h (1 Bft)
28.07.2018 05:00 14,4 C 92 % 1008,9 hPa 0,0 mm W 0,4 km/h (0 Bft)
28.07.2018 06:00 15,3 C 91 % 1009,2 hPa 0,0 mm W 1,9 km/h (1 Bft)
28.07.2018 07:00 18,7 C 85 % 1009,4 hPa 0,0 mm W 1,5 km/h (1 Bft)
28.07.2018 08:00 20,9 C 80 % 1009,4 hPa 0,0 mm W 2,5 km/h (1 Bft)
28.07.2018 09:00 23,0 C 73 % 1009,2 hPa 0,0 mm S-SO 3,2 km/h (1 Bft)
28.07.2018 10:00 25,5 C 66 % 1009,1 hPa 0,0 mm S-SO 3,5 km/h (1 Bft)
28.07.2018 11:00 28,9 C 52 % 1009,2 hPa 0,0 mm W 9,3 km/h (2 Bft)
28.07.2018 12:00 30,0 C 46 % 1009,1 hPa 0,0 mm W 13,6 km/h (3 Bft)
28.07.2018 13:00 30,3 C 45 % 1008,9 hPa 0,0 mm W 14,0 km/h (3 Bft)
28.07.2018 14:00 30,7 C 43 % 1008,8 hPa 0,0 mm W 12,0 km/h (2 Bft)
28.07.2018 15:00 30,1 C 41 % 1009,2 hPa 0,0 mm W 14,8 km/h (3 Bft)
28.07.2018 16:00 27,1 C 52 % 1009,7 hPa 0,0 mm W 19,6 km/h (3 Bft)
28.07.2018 17:00 27,8 C 52 % 1010,0 hPa 0,0 mm W 16,4 km/h (3 Bft)
28.07.2018 18:00 28,0 C 54 % 1009,7 hPa 0,0 mm W 13,8 km/h (3 Bft)
28.07.2018 19:00 26,0 C 61 % 1010,2 hPa 0,0 mm W 10,2 km/h (2 Bft)
28.07.2018 20:00 24,2 C 67 % 1011,1 hPa 0,0 mm W 4,8 km/h (1 Bft)
28.07.2018 21:00 22,2 C 72 % 1012,3 hPa 0,0 mm W 2,3 km/h (1 Bft)
28.07.2018 22:00 21,0 C 75 % 1013,2 hPa 0,0 mm W 1,1 km/h (0 Bft)
28.07.2018 23:00 20,5 C 78 % 1013,4 hPa 0,0 mm W 0,8 km/h (0 Bft)
29.07.2018 00:00 20,9 C 74 % 1013,8 hPa 0,0 mm W 2,3 km/h (1 Bft)
29.07.2018 01:00 20,9 C 72 % 1014,2 hPa 0,0 mm W 2,1 km/h (1 Bft)
29.07.2018 02:00 21,0 C 72 % 1014,3 hPa 0,0 mm W 3,6 km/h (1 Bft)
29.07.2018 03:00 20,5 C 76 % 1014,3 hPa 0,0 mm W 3,9 km/h (1 Bft)
29.07.2018 04:00 18,4 C 88 % 1014,4 hPa 0,0 mm SO 3,3 km/h (1 Bft)
29.07.2018 05:00 17,9 C 91 % 1014,8 hPa 0,0 mm SO 1,2 km/h (1 Bft)
29.07.2018 06:00 18,0 C 92 % 1015,1 hPa 0,0 mm SO 0,1 km/h (0 Bft)
29.07.2018 07:00 18,3 C 92 % 1015,4 hPa 0,0 mm SO 0,5 km/h (0 Bft)
29.07.2018 08:00 19,1 C 91 % 1015,5 hPa 0,0 mm SO 2,0 km/h (1 Bft)
29.07.2018 09:00 20,8 C 87 % 1015,5 hPa 0,0 mm O-SO 6,0 km/h (2 Bft)
29.07.2018 10:00 22,6 C 80 % 1015,1 hPa 0,0 mm O-SO 9,9 km/h (2 Bft)
29.07.2018 11:00 23,9 C 69 % 1014,6 hPa 0,0 mm O-SO 8,8 km/h (2 Bft)
29.07.2018 12:00 25,7 C 62 % 1014,1 hPa 0,0 mm O 11,0 km/h (2 Bft)
29.07.2018 13:00 26,6 C 61 % 1013,4 hPa 0,0 mm O 14,8 km/h (3 Bft)
29.07.2018 14:00 27,2 C 60 % 1012,9 hPa 0,0 mm O-SO 14,1 km/h (3 Bft)
29.07.2018 15:00 27,7 C 58 % 1012,4 hPa 0,0 mm O 12,8 km/h (3 Bft)
29.07.2018 16:00 28,0 C 58 % 1012,2 hPa 0,0 mm O-SO 11,0 km/h (2 Bft)
29.07.2018 17:00 27,8 C 58 % 1012,0 hPa 0,0 mm SO 9,3 km/h (2 Bft)
29.07.2018 18:00 27,4 C 58 % 1011,8 hPa 0,0 mm O-NO 9,3 km/h (2 Bft)
29.07.2018 19:00 26,3 C 65 % 1012,2 hPa 0,0 mm O-NO 4,3 km/h (1 Bft)
29.07.2018 20:00 24,0 C 75 % 1012,5 hPa 0,0 mm O-NO 0,1 km/h (0 Bft)
29.07.2018 21:00 21,4 C 81 % 1013,2 hPa 0,0 mm O-NO 0,9 km/h (0 Bft)
29.07.2018 22:00 20,3 C 84 % 1013,8 hPa 0,0 mm N-NW 2,3 km/h (1 Bft)
29.07.2018 23:00 19,4 C 87 % 1014,2 hPa 0,0 mm N-NW 2,0 km/h (1 Bft)
Min-Datum _ 24.07.18 28.07.18 28.07.18 - - 23.07.18
_ Min-Zeit 06:05 15:30 14:30 - - 04:35
Minimum _ 12,6 C 38 % 1008,6 hPa - - 0,0 km/h (0 Bft)
Max-Datum _ 28.07.18 23.07.18 23.07.18 26.07.18 - 28.07.18
_ Max-Zeit 15:10 00:00 21:35 01:50 - 16:00
Maximum _ 31,2 C 94 % 1017,4 hPa 1,2 mm - 30,6 km/h
W (5 Bft)
Durchschnitt _ 20,9 C 75 % 1013,5 hPa #2,0 mm W 5,9 km/h (2 Bft)